sensor_id;sensor_type;location;lat;lon;timestamp;temperature;humidity
71304;DHT22;59091;47.446;19.148;2023-04-06T00:01:12;3.84;46.91
71304;DHT22;59091;47.446;19.148;2023-04-06T00:03:38;3.82;47.36
71304;DHT22;59091;47.446;19.148;2023-04-06T00:06:03;3.70;47.61
71304;DHT22;59091;47.446;19.148;2023-04-06T00:08:29;3.70;47.37
71304;DHT22;59091;47.446;19.148;2023-04-06T00:10:54;3.64;47.27
71304;DHT22;59091;47.446;19.148;2023-04-06T00:13:20;3.63;47.48
71304;DHT22;59091;47.446;19.148;2023-04-06T00:15:46;3.59;47.93
71304;DHT22;59091;47.446;19.148;2023-04-06T00:18:12;3.51;49.05
71304;DHT22;59091;47.446;19.148;2023-04-06T00:20:37;3.54;49.24
71304;DHT22;59091;47.446;19.148;2023-04-06T00:23:03;3.47;48.70
71304;DHT22;59091;47.446;19.148;2023-04-06T00:25:28;3.44;49.25
71304;DHT22;59091;47.446;19.148;2023-04-06T00:27:54;3.40;49.27
71304;DHT22;59091;47.446;19.148;2023-04-06T00:30:19;3.36;49.06
71304;DHT22;59091;47.446;19.148;2023-04-06T00:32:45;3.31;49.08
71304;DHT22;59091;47.446;19.148;2023-04-06T00:35:11;3.29;49.24
71304;DHT22;59091;47.446;19.148;2023-04-06T00:37:36;3.26;49.12
71304;DHT22;59091;47.446;19.148;2023-04-06T00:40:02;3.22;49.10
71304;DHT22;59091;47.446;19.148;2023-04-06T00:42:28;3.22;49.23
71304;DHT22;59091;47.446;19.148;2023-04-06T00:44:53;3.19;49.60
71304;DHT22;59091;47.446;19.148;2023-04-06T00:47:20;3.18;49.64
71304;DHT22;59091;47.446;19.148;2023-04-06T00:49:45;3.10;49.56
71304;DHT22;59091;47.446;19.148;2023-04-06T00:52:11;3.13;49.78
71304;DHT22;59091;47.446;19.148;2023-04-06T00:54:36;3.12;50.04
71304;DHT22;59091;47.446;19.148;2023-04-06T00:57:01;3.06;50.48
71304;DHT22;59091;47.446;19.148;2023-04-06T00:59:28;3.05;50.68
71304;DHT22;59091;47.446;19.148;2023-04-06T01:01:53;3.02;51.01
71304;DHT22;59091;47.446;19.148;2023-04-06T01:04:19;2.99;51.59
71304;DHT22;59091;47.446;19.148;2023-04-06T01:06:45;2.93;51.67
71304;DHT22;59091;47.446;19.148;2023-04-06T01:09:10;2.89;51.82
71304;DHT22;59091;47.446;19.148;2023-04-06T01:11:36;2.85;52.64
71304;DHT22;59091;47.446;19.148;2023-04-06T01:14:02;2.87;52.29
71304;DHT22;59091;47.446;19.148;2023-04-06T01:16:28;2.84;52.36
71304;DHT22;59091;47.446;19.148;2023-04-06T01:18:53;2.85;52.83
71304;DHT22;59091;47.446;19.148;2023-04-06T01:21:19;2.82;52.76
71304;DHT22;59091;47.446;19.148;2023-04-06T01:23:45;2.82;52.94
71304;DHT22;59091;47.446;19.148;2023-04-06T01:26:12;2.81;52.53
71304;DHT22;59091;47.446;19.148;2023-04-06T01:28:37;2.78;52.67
71304;DHT22;59091;47.446;19.148;2023-04-06T01:31:04;2.79;52.88
71304;DHT22;59091;47.446;19.148;2023-04-06T01:33:29;2.81;52.40
71304;DHT22;59091;47.446;19.148;2023-04-06T01:35:55;2.81;52.73
71304;DHT22;59091;47.446;19.148;2023-04-06T01:38:21;2.79;52.53
71304;DHT22;59091;47.446;19.148;2023-04-06T01:40:46;2.75;52.41
71304;DHT22;59091;47.446;19.148;2023-04-06T01:43:11;2.77;52.39
71304;DHT22;59091;47.446;19.148;2023-04-06T01:45:37;2.74;52.50
71304;DHT22;59091;47.446;19.148;2023-04-06T01:48:03;2.74;52.35
71304;DHT22;59091;47.446;19.148;2023-04-06T01:50:28;2.75;52.41
71304;DHT22;59091;47.446;19.148;2023-04-06T01:52:54;2.69;52.82
71304;DHT22;59091;47.446;19.148;2023-04-06T01:55:20;2.69;52.90
71304;DHT22;59091;47.446;19.148;2023-04-06T01:57:45;2.68;53.77
71304;DHT22;59091;47.446;19.148;2023-04-06T02:00:11;2.68;54.07
71304;DHT22;59091;47.446;19.148;2023-04-06T02:02:37;2.69;53.64
71304;DHT22;59091;47.446;19.148;2023-04-06T02:05:03;2.71;53.65
71304;DHT22;59091;47.446;19.148;2023-04-06T02:07:28;2.65;53.76
71304;DHT22;59091;47.446;19.148;2023-04-06T02:09:54;2.71;53.82
71304;DHT22;59091;47.446;19.148;2023-04-06T02:12:20;2.71;53.57
71304;DHT22;59091;47.446;19.148;2023-04-06T02:14:46;2.71;53.25
71304;DHT22;59091;47.446;19.148;2023-04-06T02:17:11;2.66;53.55
71304;DHT22;59091;47.446;19.148;2023-04-06T02:19:37;2.66;53.56
71304;DHT22;59091;47.446;19.148;2023-04-06T02:22:02;2.66;53.69
71304;DHT22;59091;47.446;19.148;2023-04-06T02:24:27;2.64;53.77
71304;DHT22;59091;47.446;19.148;2023-04-06T02:26:53;2.62;53.56
71304;DHT22;59091;47.446;19.148;2023-04-06T02:29:18;2.64;53.66
71304;DHT22;59091;47.446;19.148;2023-04-06T02:31:45;2.64;53.77
71304;DHT22;59091;47.446;19.148;2023-04-06T02:34:10;2.58;53.78
71304;DHT22;59091;47.446;19.148;2023-04-06T02:36:37;2.57;53.62
71304;DHT22;59091;47.446;19.148;2023-04-06T02:39:02;2.57;53.57
71304;DHT22;59091;47.446;19.148;2023-04-06T02:41:28;2.58;53.55
71304;DHT22;59091;47.446;19.148;2023-04-06T02:43:54;2.59;53.44
71304;DHT22;59091;47.446;19.148;2023-04-06T02:46:19;2.59;53.53
71304;DHT22;59091;47.446;19.148;2023-04-06T02:48:45;2.55;53.62
71304;DHT22;59091;47.446;19.148;2023-04-06T02:51:10;2.55;53.49
71304;DHT22;59091;47.446;19.148;2023-04-06T02:53:36;2.54;53.61
71304;DHT22;59091;47.446;19.148;2023-04-06T02:56:01;2.52;53.45
71304;DHT22;59091;47.446;19.148;2023-04-06T02:58:27;2.45;53.86
71304;DHT22;59091;47.446;19.148;2023-04-06T03:00:52;2.42;54.30
71304;DHT22;59091;47.446;19.148;2023-04-06T03:03:18;2.37;54.21
71304;DHT22;59091;47.446;19.148;2023-04-06T03:05:43;2.36;54.68
71304;DHT22;59091;47.446;19.148;2023-04-06T03:08:08;2.33;54.56
71304;DHT22;59091;47.446;19.148;2023-04-06T03:10:34;2.34;54.45
71304;DHT22;59091;47.446;19.148;2023-04-06T03:13:00;2.31;54.41
71304;DHT22;59091;47.446;19.148;2023-04-06T03:15:25;2.31;54.55
71304;DHT22;59091;47.446;19.148;2023-04-06T03:17:51;2.28;54.67
71304;DHT22;59091;47.446;19.148;2023-04-06T03:20:16;2.26;54.80
71304;DHT22;59091;47.446;19.148;2023-04-06T03:22:42;2.30;54.68
71304;DHT22;59091;47.446;19.148;2023-04-06T03:25:07;2.24;55.15
71304;DHT22;59091;47.446;19.148;2023-04-06T03:27:33;2.17;55.47
71304;DHT22;59091;47.446;19.148;2023-04-06T03:29:58;2.14;55.54
71304;DHT22;59091;47.446;19.148;2023-04-06T03:32:24;2.14;55.49
71304;DHT22;59091;47.446;19.148;2023-04-06T03:34:49;2.14;55.44
71304;DHT22;59091;47.446;19.148;2023-04-06T03:37:15;2.14;55.16
71304;DHT22;59091;47.446;19.148;2023-04-06T03:39:40;2.09;55.61
71304;DHT22;59091;47.446;19.148;2023-04-06T03:42:06;2.09;55.83
71304;DHT22;59091;47.446;19.148;2023-04-06T03:44:31;2.09;55.65
71304;DHT22;59091;47.446;19.148;2023-04-06T03:46:57;2.07;55.63
71304;DHT22;59091;47.446;19.148;2023-04-06T03:49:22;2.06;56.08
71304;DHT22;59091;47.446;19.148;2023-04-06T03:51:48;2.05;55.81
71304;DHT22;59091;47.446;19.148;2023-04-06T03:54:13;2.02;56.08
71304;DHT22;59091;47.446;19.148;2023-04-06T03:56:38;1.99;56.23
71304;DHT22;59091;47.446;19.148;2023-04-06T03:59:04;1.99;56.18
71304;DHT22;59091;47.446;19.148;2023-04-06T04:01:30;1.97;56.34
71304;DHT22;59091;47.446;19.148;2023-04-06T04:03:55;1.95;56.69
71304;DHT22;59091;47.446;19.148;2023-04-06T04:06:21;1.92;56.67
71304;DHT22;59091;47.446;19.148;2023-04-06T04:08:46;1.89;57.15
71304;DHT22;59091;47.446;19.148;2023-04-06T04:11:12;1.89;57.54
71304;DHT22;59091;47.446;19.148;2023-04-06T04:13:37;1.89;57.63
71304;DHT22;59091;47.446;19.148;2023-04-06T04:16:03;1.89;57.31
71304;DHT22;59091;47.446;19.148;2023-04-06T04:18:28;1.90;56.94
71304;DHT22;59091;47.446;19.148;2023-04-06T04:20:54;1.86;56.86
71304;DHT22;59091;47.446;19.148;2023-04-06T04:23:19;1.87;57.21
71304;DHT22;59091;47.446;19.148;2023-04-06T04:25:45;1.90;57.13
71304;DHT22;59091;47.446;19.148;2023-04-06T04:28:10;1.89;57.07
71304;DHT22;59091;47.446;19.148;2023-04-06T04:30:36;1.90;57.11
71304;DHT22;59091;47.446;19.148;2023-04-06T04:33:01;1.89;57.38
71304;DHT22;59091;47.446;19.148;2023-04-06T04:35:27;1.93;57.33
71304;DHT22;59091;47.446;19.148;2023-04-06T04:37:52;1.96;57.86
71304;DHT22;59091;47.446;19.148;2023-04-06T04:40:18;1.99;57.56
71304;DHT22;59091;47.446;19.148;2023-04-06T04:42:43;2.06;57.16
71304;DHT22;59091;47.446;19.148;2023-04-06T04:45:10;2.07;57.24
71304;DHT22;59091;47.446;19.148;2023-04-06T04:47:36;2.13;57.42
71304;DHT22;59091;47.446;19.148;2023-04-06T04:50:02;2.14;57.74
71304;DHT22;59091;47.446;19.148;2023-04-06T04:52:27;2.24;57.54
71304;DHT22;59091;47.446;19.148;2023-04-06T04:54:53;2.27;57.21
71304;DHT22;59091;47.446;19.148;2023-04-06T04:57:18;2.34;56.85
71304;DHT22;59091;47.446;19.148;2023-04-06T04:59:43;2.48;59.05
71304;DHT22;59091;47.446;19.148;2023-04-06T05:02:09;2.68;62.04
71304;DHT22;59091;47.446;19.148;2023-04-06T05:04:35;2.74;57.19
71304;DHT22;59091;47.446;19.148;2023-04-06T05:07:05;3.06;67.67
71304;DHT22;59091;47.446;19.148;2023-04-06T05:09:30;3.22;57.50
71304;DHT22;59091;47.446;19.148;2023-04-06T05:11:57;3.16;54.10
71304;DHT22;59091;47.446;19.148;2023-04-06T05:14:23;3.23;53.34
71304;DHT22;59091;47.446;19.148;2023-04-06T05:16:48;3.27;53.01
71304;DHT22;59091;47.446;19.148;2023-04-06T05:19:13;3.24;52.34
71304;DHT22;59091;47.446;19.148;2023-04-06T05:21:39;3.34;51.74
71304;DHT22;59091;47.446;19.148;2023-04-06T05:24:05;3.41;52.16
71304;DHT22;59091;47.446;19.148;2023-04-06T05:26:30;3.49;51.58
71304;DHT22;59091;47.446;19.148;2023-04-06T05:28:56;3.50;51.07
71304;DHT22;59091;47.446;19.148;2023-04-06T05:31:21;3.60;50.79
71304;DHT22;59091;47.446;19.148;2023-04-06T05:33:47;3.81;50.57
71304;DHT22;59091;47.446;19.148;2023-04-06T05:36:12;3.88;50.55
71304;DHT22;59091;47.446;19.148;2023-04-06T05:38:38;4.04;50.28
71304;DHT22;59091;47.446;19.148;2023-04-06T05:41:03;3.98;50.35
71304;DHT22;59091;47.446;19.148;2023-04-06T05:43:29;3.99;50.28
71304;DHT22;59091;47.446;19.148;2023-04-06T05:45:54;3.81;50.09
71304;DHT22;59091;47.446;19.148;2023-04-06T05:48:20;3.94;49.82
71304;DHT22;59091;47.446;19.148;2023-04-06T05:50:49;3.84;49.89
71304;DHT22;59091;47.446;19.148;2023-04-06T05:53:18;3.92;49.36
71304;DHT22;59091;47.446;19.148;2023-04-06T05:55:43;3.80;49.01
71304;DHT22;59091;47.446;19.148;2023-04-06T05:58:09;3.77;49.43
71304;DHT22;59091;47.446;19.148;2023-04-06T06:00:35;4.04;49.84
71304;DHT22;59091;47.446;19.148;2023-04-06T06:03:00;4.08;48.35
71304;DHT22;59091;47.446;19.148;2023-04-06T06:05:29;4.19;48.86
71304;DHT22;59091;47.446;19.148;2023-04-06T06:07:55;4.35;47.86
71304;DHT22;59091;47.446;19.148;2023-04-06T06:10:20;4.56;47.72
71304;DHT22;59091;47.446;19.148;2023-04-06T06:12:46;4.66;47.05
71304;DHT22;59091;47.446;19.148;2023-04-06T06:15:11;4.70;47.42
71304;DHT22;59091;47.446;19.148;2023-04-06T06:17:37;4.81;47.23
71304;DHT22;59091;47.446;19.148;2023-04-06T06:20:05;4.38;47.94
71304;DHT22;59091;47.446;19.148;2023-04-06T06:22:31;4.49;47.78
71304;DHT22;59091;47.446;19.148;2023-04-06T06:24:56;4.56;47.41
71304;DHT22;59091;47.446;19.148;2023-04-06T06:27:22;4.66;46.82
71304;DHT22;59091;47.446;19.148;2023-04-06T06:29:47;5.00;48.87
71304;DHT22;59091;47.446;19.148;2023-04-06T06:32:14;5.23;46.59
71304;DHT22;59091;47.446;19.148;2023-04-06T06:34:40;5.24;45.80
71304;DHT22;59091;47.446;19.148;2023-04-06T06:37:05;5.49;45.49
71304;DHT22;59091;47.446;19.148;2023-04-06T06:39:31;5.58;45.33
71304;DHT22;59091;47.446;19.148;2023-04-06T06:41:57;5.72;44.80
71304;DHT22;59091;47.446;19.148;2023-04-06T06:44:22;5.62;43.62
71304;DHT22;59091;47.446;19.148;2023-04-06T06:46:48;5.70;42.65
71304;DHT22;59091;47.446;19.148;2023-04-06T06:49:13;5.80;43.75
71304;DHT22;59091;47.446;19.148;2023-04-06T06:51:40;5.73;40.90
71304;DHT22;59091;47.446;19.148;2023-04-06T06:54:05;5.80;40.77
71304;DHT22;59091;47.446;19.148;2023-04-06T06:56:31;5.79;40.60
71304;DHT22;59091;47.446;19.148;2023-04-06T06:58:56;6.06;40.49
71304;DHT22;59091;47.446;19.148;2023-04-06T07:01:22;6.09;41.52
71304;DHT22;59091;47.446;19.148;2023-04-06T07:03:48;6.23;44.76
71304;DHT22;59091;47.446;19.148;2023-04-06T07:06:22;6.68;47.34
71304;DHT22;59091;47.446;19.148;2023-04-06T07:08:48;6.54;39.10
71304;DHT22;59091;47.446;19.148;2023-04-06T07:11:14;6.64;38.77
71304;DHT22;59091;47.446;19.148;2023-04-06T07:13:39;6.37;38.24
71304;DHT22;59091;47.446;19.148;2023-04-06T07:16:07;6.52;39.17
71304;DHT22;59091;47.446;19.148;2023-04-06T07:18:41;6.69;38.51
71304;DHT22;59091;47.446;19.148;2023-04-06T07:21:07;7.42;42.99
71304;DHT22;59091;47.446;19.148;2023-04-06T07:23:32;7.15;39.86
71304;DHT22;59091;47.446;19.148;2023-04-06T07:25:58;7.13;40.73
71304;DHT22;59091;47.446;19.148;2023-04-06T07:28:23;7.18;37.01
71304;DHT22;59091;47.446;19.148;2023-04-06T07:30:48;7.27;37.17
71304;DHT22;59091;47.446;19.148;2023-04-06T07:33:14;7.29;36.52
71304;DHT22;59091;47.446;19.148;2023-04-06T07:35:39;7.05;35.31
71304;DHT22;59091;47.446;19.148;2023-04-06T07:38:05;6.99;35.60
71304;DHT22;59091;47.446;19.148;2023-04-06T07:40:30;7.03;35.91
71304;DHT22;59091;47.446;19.148;2023-04-06T07:42:57;7.26;35.41
71304;DHT22;59091;47.446;19.148;2023-04-06T07:45:23;7.00;35.69
71304;DHT22;59091;47.446;19.148;2023-04-06T07:47:48;6.93;35.73
71304;DHT22;59091;47.446;19.148;2023-04-06T07:50:15;7.03;36.32
71304;DHT22;59091;47.446;19.148;2023-04-06T07:52:40;7.23;36.28
71304;DHT22;59091;47.446;19.148;2023-04-06T07:55:06;8.02;45.33
71304;DHT22;59091;47.446;19.148;2023-04-06T07:57:31;7.98;34.59
71304;DHT22;59091;47.446;19.148;2023-04-06T07:59:57;7.94;34.47
71304;DHT22;59091;47.446;19.148;2023-04-06T08:02:22;7.64;35.17
71304;DHT22;59091;47.446;19.148;2023-04-06T08:04:48;7.71;34.33
71304;DHT22;59091;47.446;19.148;2023-04-06T08:07:13;7.22;35.28
71304;DHT22;59091;47.446;19.148;2023-04-06T08:09:39;7.49;35.48
71304;DHT22;59091;47.446;19.148;2023-04-06T08:12:05;7.78;35.26
71304;DHT22;59091;47.446;19.148;2023-04-06T08:14:30;7.70;35.25
71304;DHT22;59091;47.446;19.148;2023-04-06T08:16:56;7.46;35.48
71304;DHT22;59091;47.446;19.148;2023-04-06T08:19:21;7.44;35.54
71304;DHT22;59091;47.446;19.148;2023-04-06T08:21:47;7.43;35.35
71304;DHT22;59091;47.446;19.148;2023-04-06T08:24:13;7.53;35.01
71304;DHT22;59091;47.446;19.148;2023-04-06T08:26:38;7.73;35.38
71304;DHT22;59091;47.446;19.148;2023-04-06T08:29:04;8.18;34.88
71304;DHT22;59091;47.446;19.148;2023-04-06T08:31:33;8.06;34.46
71304;DHT22;59091;47.446;19.148;2023-04-06T08:33:58;8.13;34.90
71304;DHT22;59091;47.446;19.148;2023-04-06T08:36:24;7.61;35.17
71304;DHT22;59091;47.446;19.148;2023-04-06T08:38:50;7.71;34.78
71304;DHT22;59091;47.446;19.148;2023-04-06T08:41:16;7.99;34.81
71304;DHT22;59091;47.446;19.148;2023-04-06T08:43:46;7.88;34.26
71304;DHT22;59091;47.446;19.148;2023-04-06T08:46:12;8.03;33.98
71304;DHT22;59091;47.446;19.148;2023-04-06T08:48:40;8.12;33.70
71304;DHT22;59091;47.446;19.148;2023-04-06T08:51:05;8.13;33.82
71304;DHT22;59091;47.446;19.148;2023-04-06T08:53:31;8.25;33.80
71304;DHT22;59091;47.446;19.148;2023-04-06T08:55:58;8.48;34.33
71304;DHT22;59091;47.446;19.148;2023-04-06T08:58:24;8.28;34.17
71304;DHT22;59091;47.446;19.148;2023-04-06T09:00:50;8.16;33.82
71304;DHT22;59091;47.446;19.148;2023-04-06T09:03:17;8.63;34.40
71304;DHT22;59091;47.446;19.148;2023-04-06T09:05:43;9.05;34.04
71304;DHT22;59091;47.446;19.148;2023-04-06T09:08:10;8.48;33.38
71304;DHT22;59091;47.446;19.148;2023-04-06T09:10:35;8.53;33.89
71304;DHT22;59091;47.446;19.148;2023-04-06T09:13:05;8.60;33.90
71304;DHT22;59091;47.446;19.148;2023-04-06T09:15:31;8.76;34.08
71304;DHT22;59091;47.446;19.148;2023-04-06T09:17:57;8.64;34.37
71304;DHT22;59091;47.446;19.148;2023-04-06T09:20:24;8.52;33.92
71304;DHT22;59091;47.446;19.148;2023-04-06T09:22:54;8.62;33.82
71304;DHT22;59091;47.446;19.148;2023-04-06T09:25:22;8.73;33.83
71304;DHT22;59091;47.446;19.148;2023-04-06T09:28:04;8.70;34.47
71304;DHT22;59091;47.446;19.148;2023-04-06T09:30:30;8.59;33.41
71304;DHT22;59091;47.446;19.148;2023-04-06T09:32:56;8.87;32.93
71304;DHT22;59091;47.446;19.148;2023-04-06T09:35:23;9.04;32.13
71304;DHT22;59091;47.446;19.148;2023-04-06T09:37:52;9.01;31.63
71304;DHT22;59091;47.446;19.148;2023-04-06T09:40:17;8.94;31.25
71304;DHT22;59091;47.446;19.148;2023-04-06T09:42:48;8.97;31.05
71304;DHT22;59091;47.446;19.148;2023-04-06T09:45:15;9.49;31.45
71304;DHT22;59091;47.446;19.148;2023-04-06T09:47:45;9.36;31.15
71304;DHT22;59091;47.446;19.148;2023-04-06T09:50:12;9.68;31.59
71304;DHT22;59091;47.446;19.148;2023-04-06T09:52:42;9.54;30.26
71304;DHT22;59091;47.446;19.148;2023-04-06T09:55:08;9.15;31.50
71304;DHT22;59091;47.446;19.148;2023-04-06T09:57:55;9.03;30.95
71304;DHT22;59091;47.446;19.148;2023-04-06T10:00:23;9.39;31.80
71304;DHT22;59091;47.446;19.148;2023-04-06T10:03:11;9.39;31.07
71304;DHT22;59091;47.446;19.148;2023-04-06T10:08:11;9.72;31.59
71304;DHT22;59091;47.446;19.148;2023-04-06T10:10:38;9.81;31.44
71304;DHT22;59091;47.446;19.148;2023-04-06T10:13:04;9.93;30.70
71304;DHT22;59091;47.446;19.148;2023-04-06T10:15:30;9.90;30.25
71304;DHT22;59091;47.446;19.148;2023-04-06T10:17:57;10.13;30.29
71304;DHT22;59091;47.446;19.148;2023-04-06T10:23:06;9.95;30.70
71304;DHT22;59091;47.446;19.148;2023-04-06T10:25:33;10.14;31.00
71304;DHT22;59091;47.446;19.148;2023-04-06T10:28:05;10.37;30.45
71304;DHT22;59091;47.446;19.148;2023-04-06T10:30:31;10.53;30.31
71304;DHT22;59091;47.446;19.148;2023-04-06T10:32:57;10.48;30.05
71304;DHT22;59091;47.446;19.148;2023-04-06T10:35:23;10.16;30.00
71304;DHT22;59091;47.446;19.148;2023-04-06T10:38:00;10.69;29.97
71304;DHT22;59091;47.446;19.148;2023-04-06T10:40:26;10.81;29.95
71304;DHT22;59091;47.446;19.148;2023-04-06T10:43:06;10.78;30.58
71304;DHT22;59091;47.446;19.148;2023-04-06T10:45:32;10.54;30.13
71304;DHT22;59091;47.446;19.148;2023-04-06T10:47:57;10.54;29.64
71304;DHT22;59091;47.446;19.148;2023-04-06T10:50:23;10.65;29.37
71304;DHT22;59091;47.446;19.148;2023-04-06T10:52:59;10.61;29.56
71304;DHT22;59091;47.446;19.148;2023-04-06T10:55:26;10.29;29.74
71304;DHT22;59091;47.446;19.148;2023-04-06T10:57:53;10.53;29.84
71304;DHT22;59091;47.446;19.148;2023-04-06T11:00:19;10.67;29.55
71304;DHT22;59091;47.446;19.148;2023-04-06T11:02:45;10.65;30.22
71304;DHT22;59091;47.446;19.148;2023-04-06T11:05:12;10.79;29.38
71304;DHT22;59091;47.446;19.148;2023-04-06T11:07:41;10.65;29.55
71304;DHT22;59091;47.446;19.148;2023-04-06T11:10:07;10.64;29.29
71304;DHT22;59091;47.446;19.148;2023-04-06T11:12:33;10.40;29.36
71304;DHT22;59091;47.446;19.148;2023-04-06T11:15:03;10.68;30.25
71304;DHT22;59091;47.446;19.148;2023-04-06T11:17:33;11.04;28.92
71304;DHT22;59091;47.446;19.148;2023-04-06T11:19:59;11.29;28.90
71304;DHT22;59091;47.446;19.148;2023-04-06T11:22:25;11.42;27.86
71304;DHT22;59091;47.446;19.148;2023-04-06T11:24:52;11.44;28.57
71304;DHT22;59091;47.446;19.148;2023-04-06T11:27:18;11.42;28.47
71304;DHT22;59091;47.446;19.148;2023-04-06T11:29:44;11.16;28.03
71304;DHT22;59091;47.446;19.148;2023-04-06T11:32:22;11.29;27.97
71304;DHT22;59091;47.446;19.148;2023-04-06T11:34:49;11.28;28.17
71304;DHT22;59091;47.446;19.148;2023-04-06T11:37:15;11.44;27.97
71304;DHT22;59091;47.446;19.148;2023-04-06T11:39:49;11.56;27.69
71304;DHT22;59091;47.446;19.148;2023-04-06T11:42:25;11.69;26.98
71304;DHT22;59091;47.446;19.148;2023-04-06T11:44:53;11.66;27.45
71304;DHT22;59091;47.446;19.148;2023-04-06T11:47:20;11.73;27.20
71304;DHT22;59091;47.446;19.148;2023-04-06T11:49:52;11.60;27.19
71304;DHT22;59091;47.446;19.148;2023-04-06T11:52:23;11.29;27.66
71304;DHT22;59091;47.446;19.148;2023-04-06T11:54:50;11.43;27.80
71304;DHT22;59091;47.446;19.148;2023-04-06T11:57:16;11.37;28.99
71304;DHT22;59091;47.446;19.148;2023-04-06T11:59:43;11.23;27.66
71304;DHT22;59091;47.446;19.148;2023-04-06T12:02:08;10.92;27.69
71304;DHT22;59091;47.446;19.148;2023-04-06T12:04:34;10.68;28.09
71304;DHT22;59091;47.446;19.148;2023-04-06T12:07:00;10.50;28.41
71304;DHT22;59091;47.446;19.148;2023-04-06T12:09:26;10.54;28.49
71304;DHT22;59091;47.446;19.148;2023-04-06T12:11:51;10.50;28.73
71304;DHT22;59091;47.446;19.148;2023-04-06T12:14:17;10.67;28.83
71304;DHT22;59091;47.446;19.148;2023-04-06T12:16:42;11.01;42.21
71304;DHT22;59091;47.446;19.148;2023-04-06T12:19:09;10.99;28.17
71304;DHT22;59091;47.446;19.148;2023-04-06T12:21:35;11.09;28.30
71304;DHT22;59091;47.446;19.148;2023-04-06T12:24:03;10.81;28.11
71304;DHT22;59091;47.446;19.148;2023-04-06T12:26:29;10.89;29.19
71304;DHT22;59091;47.446;19.148;2023-04-06T12:28:55;10.99;28.90
71304;DHT22;59091;47.446;19.148;2023-04-06T12:31:21;11.46;28.29
71304;DHT22;59091;47.446;19.148;2023-04-06T12:33:49;11.06;28.03
71304;DHT22;59091;47.446;19.148;2023-04-06T12:36:16;11.25;27.85
71304;DHT22;59091;47.446;19.148;2023-04-06T12:38:44;11.56;27.40
71304;DHT22;59091;47.446;19.148;2023-04-06T12:41:11;11.80;27.67
71304;DHT22;59091;47.446;19.148;2023-04-06T12:43:37;11.62;27.90
71304;DHT22;59091;47.446;19.148;2023-04-06T12:46:02;11.62;27.54
71304;DHT22;59091;47.446;19.148;2023-04-06T12:48:28;11.49;27.96
71304;DHT22;59091;47.446;19.148;2023-04-06T12:50:57;11.04;27.88
71304;DHT22;59091;47.446;19.148;2023-04-06T12:53:23;11.19;28.30
71304;DHT22;59091;47.446;19.148;2023-04-06T12:55:49;11.15;28.45
71304;DHT22;59091;47.446;19.148;2023-04-06T12:58:15;11.37;27.85
71304;DHT22;59091;47.446;19.148;2023-04-06T13:00:41;11.69;27.61
71304;DHT22;59091;47.446;19.148;2023-04-06T13:03:07;11.84;27.72
71304;DHT22;59091;47.446;19.148;2023-04-06T13:05:32;11.74;27.52
71304;DHT22;59091;47.446;19.148;2023-04-06T13:07:58;11.35;28.08
71304;DHT22;59091;47.446;19.148;2023-04-06T13:10:23;11.39;28.36
71304;DHT22;59091;47.446;19.148;2023-04-06T13:12:49;11.19;28.53
71304;DHT22;59091;47.446;19.148;2023-04-06T13:15:15;11.56;39.34
71304;DHT22;59091;47.446;19.148;2023-04-06T13:17:41;11.15;28.93
71304;DHT22;59091;47.446;19.148;2023-04-06T13:20:06;11.04;29.15
71304;DHT22;59091;47.446;19.148;2023-04-06T13:22:32;11.14;29.06
71304;DHT22;59091;47.446;19.148;2023-04-06T13:24:57;11.59;49.96
71304;DHT22;59091;47.446;19.148;2023-04-06T13:27:23;11.80;30.79
71304;DHT22;59091;47.446;19.148;2023-04-06T13:29:49;11.97;29.26
71304;DHT22;59091;47.446;19.148;2023-04-06T13:32:14;11.91;29.53
71304;DHT22;59091;47.446;19.148;2023-04-06T13:34:40;11.95;29.68
71304;DHT22;59091;47.446;19.148;2023-04-06T13:37:12;12.01;29.66
71304;DHT22;59091;47.446;19.148;2023-04-06T13:39:38;11.70;30.32
71304;DHT22;59091;47.446;19.148;2023-04-06T13:42:03;11.53;30.98
71304;DHT22;59091;47.446;19.148;2023-04-06T13:44:29;11.60;30.55
71304;DHT22;59091;47.446;19.148;2023-04-06T13:46:56;11.53;30.77
71304;DHT22;59091;47.446;19.148;2023-04-06T13:49:21;11.57;31.44
71304;DHT22;59091;47.446;19.148;2023-04-06T13:51:47;11.60;32.30
71304;DHT22;59091;47.446;19.148;2023-04-06T13:54:12;11.47;31.90
71304;DHT22;59091;47.446;19.148;2023-04-06T13:56:38;11.60;31.86
71304;DHT22;59091;47.446;19.148;2023-04-06T13:59:03;11.42;32.11
71304;DHT22;59091;47.446;19.148;2023-04-06T14:01:29;10.92;32.72
71304;DHT22;59091;47.446;19.148;2023-04-06T14:03:54;10.77;33.50
71304;DHT22;59091;47.446;19.148;2023-04-06T14:06:20;10.67;33.82
71304;DHT22;59091;47.446;19.148;2023-04-06T14:08:45;10.55;33.77
71304;DHT22;59091;47.446;19.148;2023-04-06T14:11:12;10.38;34.07
71304;DHT22;59091;47.446;19.148;2023-04-06T14:13:39;10.54;34.70
71304;DHT22;59091;47.446;19.148;2023-04-06T14:16:04;10.57;34.25
71304;DHT22;59091;47.446;19.148;2023-04-06T14:18:30;10.21;33.70
71304;DHT22;59091;47.446;19.148;2023-04-06T14:20:57;10.37;33.40
71304;DHT22;59091;47.446;19.148;2023-04-06T14:23:23;10.38;33.68
71304;DHT22;59091;47.446;19.148;2023-04-06T14:25:52;10.53;34.45
71304;DHT22;59091;47.446;19.148;2023-04-06T14:28:17;10.54;33.87
71304;DHT22;59091;47.446;19.148;2023-04-06T14:30:43;10.46;33.70
71304;DHT22;59091;47.446;19.148;2023-04-06T14:33:09;10.79;33.44
71304;DHT22;59091;47.446;19.148;2023-04-06T14:35:38;10.91;34.30
71304;DHT22;59091;47.446;19.148;2023-04-06T14:38:03;10.89;32.86
71304;DHT22;59091;47.446;19.148;2023-04-06T14:40:29;10.58;33.82
71304;DHT22;59091;47.446;19.148;2023-04-06T14:42:54;10.23;36.35
71304;DHT22;59091;47.446;19.148;2023-04-06T14:45:21;10.00;37.40
71304;DHT22;59091;47.446;19.148;2023-04-06T14:47:47;9.86;37.44
71304;DHT22;59091;47.446;19.148;2023-04-06T14:50:13;9.72;38.80
71304;DHT22;59091;47.446;19.148;2023-04-06T14:52:38;9.82;38.02
71304;DHT22;59091;47.446;19.148;2023-04-06T14:55:04;9.52;38.99
71304;DHT22;59091;47.446;19.148;2023-04-06T14:57:30;9.42;38.77
71304;DHT22;59091;47.446;19.148;2023-04-06T14:59:56;9.61;38.51
71304;DHT22;59091;47.446;19.148;2023-04-06T15:02:22;9.65;37.33
71304;DHT22;59091;47.446;19.148;2023-04-06T15:04:47;9.92;36.43
71304;DHT22;59091;47.446;19.148;2023-04-06T15:07:12;9.92;36.50
71304;DHT22;59091;47.446;19.148;2023-04-06T15:09:38;10.02;36.45
71304;DHT22;59091;47.446;19.148;2023-04-06T15:12:03;9.90;36.78
71304;DHT22;59091;47.446;19.148;2023-04-06T15:14:29;9.89;37.59
71304;DHT22;59091;47.446;19.148;2023-04-06T15:16:55;9.92;37.33
71304;DHT22;59091;47.446;19.148;2023-04-06T15:19:21;9.63;37.62
71304;DHT22;59091;47.446;19.148;2023-04-06T15:21:46;9.45;38.51
71304;DHT22;59091;47.446;19.148;2023-04-06T15:24:12;9.41;43.42
71304;DHT22;59091;47.446;19.148;2023-04-06T15:26:37;9.32;40.32